sensor_id;sensor_type;location;lat;lon;timestamp;P1;durP1;ratioP1;P2;durP2;ratioP2
85040;SDS011;75367;52.010;4.358;2024-02-26T00:01:25;4.50;;;2.40;;
85040;SDS011;75367;52.010;4.358;2024-02-26T00:03:50;3.87;;;2.80;;
85040;SDS011;75367;52.010;4.358;2024-02-26T00:06:15;3.83;;;2.03;;
85040;SDS011;75367;52.010;4.358;2024-02-26T00:08:41;2.85;;;2.13;;
85040;SDS011;75367;52.010;4.358;2024-02-26T00:11:06;3.85;;;2.30;;
85040;SDS011;75367;52.010;4.358;2024-02-26T00:13:31;3.72;;;2.60;;
85040;SDS011;75367;52.010;4.358;2024-02-26T00:15:57;3.05;;;2.20;;
85040;SDS011;75367;52.010;4.358;2024-02-26T00:18:22;3.70;;;2.20;;
85040;SDS011;75367;52.010;4.358;2024-02-26T00:20:48;3.27;;;2.97;;
85040;SDS011;75367;52.010;4.358;2024-02-26T00:23:14;2.97;;;2.67;;
85040;SDS011;75367;52.010;4.358;2024-02-26T00:25:40;2.50;;;2.20;;
85040;SDS011;75367;52.010;4.358;2024-02-26T00:28:07;4.30;;;2.47;;
85040;SDS011;75367;52.010;4.358;2024-02-26T00:30:33;3.97;;;2.00;;
85040;SDS011;75367;52.010;4.358;2024-02-26T00:32:58;3.72;;;2.28;;
85040;SDS011;75367;52.010;4.358;2024-02-26T00:35:25;4.38;;;2.67;;
85040;SDS011;75367;52.010;4.358;2024-02-26T00:37:52;3.30;;;2.70;;
85040;SDS011;75367;52.010;4.358;2024-02-26T00:40:18;3.45;;;2.55;;
85040;SDS011;75367;52.010;4.358;2024-02-26T00:42:43;2.90;;;2.17;;
85040;SDS011;75367;52.010;4.358;2024-02-26T00:45:11;4.15;;;2.70;;
85040;SDS011;75367;52.010;4.358;2024-02-26T00:47:37;3.22;;;1.80;;
85040;SDS011;75367;52.010;4.358;2024-02-26T00:50:03;2.70;;;2.00;;
85040;SDS011;75367;52.010;4.358;2024-02-26T00:52:28;2.92;;;2.08;;
85040;SDS011;75367;52.010;4.358;2024-02-26T00:54:53;3.50;;;2.08;;
85040;SDS011;75367;52.010;4.358;2024-02-26T00:57:19;3.95;;;2.63;;
85040;SDS011;75367;52.010;4.358;2024-02-26T00:59:44;4.13;;;2.03;;
85040;SDS011;75367;52.010;4.358;2024-02-26T01:02:09;3.95;;;2.78;;
85040;SDS011;75367;52.010;4.358;2024-02-26T01:04:35;3.80;;;2.22;;
85040;SDS011;75367;52.010;4.358;2024-02-26T01:07:00;3.30;;;2.73;;
85040;SDS011;75367;52.010;4.358;2024-02-26T01:09:25;3.30;;;2.42;;
85040;SDS011;75367;52.010;4.358;2024-02-26T01:11:51;3.08;;;2.60;;
85040;SDS011;75367;52.010;4.358;2024-02-26T01:14:16;4.57;;;3.60;;
85040;SDS011;75367;52.010;4.358;2024-02-26T01:16:41;3.17;;;2.20;;
85040;SDS011;75367;52.010;4.358;2024-02-26T01:19:07;3.97;;;3.63;;
85040;SDS011;75367;52.010;4.358;2024-02-26T01:21:32;2.80;;;2.47;;
85040;SDS011;75367;52.010;4.358;2024-02-26T01:23:57;2.83;;;2.60;;
85040;SDS011;75367;52.010;4.358;2024-02-26T01:26:23;3.28;;;2.83;;
85040;SDS011;75367;52.010;4.358;2024-02-26T01:28:48;3.92;;;2.60;;
85040;SDS011;75367;52.010;4.358;2024-02-26T01:31:14;3.22;;;2.92;;
85040;SDS011;75367;52.010;4.358;2024-02-26T01:33:39;2.75;;;2.50;;
85040;SDS011;75367;52.010;4.358;2024-02-26T01:36:05;3.45;;;2.80;;
85040;SDS011;75367;52.010;4.358;2024-02-26T01:38:30;4.95;;;3.50;;
85040;SDS011;75367;52.010;4.358;2024-02-26T01:40:56;3.30;;;2.35;;
85040;SDS011;75367;52.010;4.358;2024-02-26T01:43:21;4.32;;;2.70;;
85040;SDS011;75367;52.010;4.358;2024-02-26T01:45:47;4.30;;;3.10;;
85040;SDS011;75367;52.010;4.358;2024-02-26T01:48:12;3.88;;;3.13;;
85040;SDS011;75367;52.010;4.358;2024-02-26T01:50:38;4.03;;;3.15;;
85040;SDS011;75367;52.010;4.358;2024-02-26T01:53:04;5.40;;;3.70;;
85040;SDS011;75367;52.010;4.358;2024-02-26T01:55:30;3.83;;;3.33;;
85040;SDS011;75367;52.010;4.358;2024-02-26T01:57:56;4.38;;;2.88;;
85040;SDS011;75367;52.010;4.358;2024-02-26T02:00:22;3.70;;;3.15;;
85040;SDS011;75367;52.010;4.358;2024-02-26T02:02:48;3.55;;;3.25;;
85040;SDS011;75367;52.010;4.358;2024-02-26T02:05:15;3.85;;;3.35;;
85040;SDS011;75367;52.010;4.358;2024-02-26T02:07:43;3.30;;;3.00;;
85040;SDS011;75367;52.010;4.358;2024-02-26T02:10:09;3.92;;;3.53;;
85040;SDS011;75367;52.010;4.358;2024-02-26T02:12:35;5.45;;;2.97;;
85040;SDS011;75367;52.010;4.358;2024-02-26T02:15:01;5.03;;;3.60;;
85040;SDS011;75367;52.010;4.358;2024-02-26T02:17:27;3.80;;;2.75;;
85040;SDS011;75367;52.010;4.358;2024-02-26T02:19:52;4.97;;;3.92;;
85040;SDS011;75367;52.010;4.358;2024-02-26T02:22:18;4.38;;;3.88;;
85040;SDS011;75367;52.010;4.358;2024-02-26T02:24:44;4.60;;;4.20;;
85040;SDS011;75367;52.010;4.358;2024-02-26T02:27:10;5.80;;;4.55;;
85040;SDS011;75367;52.010;4.358;2024-02-26T02:29:35;5.18;;;4.30;;
85040;SDS011;75367;52.010;4.358;2024-02-26T02:32:01;4.28;;;3.88;;
85040;SDS011;75367;52.010;4.358;2024-02-26T02:34:27;4.63;;;4.03;;
85040;SDS011;75367;52.010;4.358;2024-02-26T02:36:53;3.38;;;3.08;;
85040;SDS011;75367;52.010;4.358;2024-02-26T02:39:19;5.22;;;3.90;;
85040;SDS011;75367;52.010;4.358;2024-02-26T02:41:45;5.40;;;4.90;;
85040;SDS011;75367;52.010;4.358;2024-02-26T02:44:11;6.30;;;5.15;;
85040;SDS011;75367;52.010;4.358;2024-02-26T02:46:36;5.97;;;4.50;;
85040;SDS011;75367;52.010;4.358;2024-02-26T02:49:02;5.50;;;4.90;;
85040;SDS011;75367;52.010;4.358;2024-02-26T02:51:27;5.13;;;4.07;;
85040;SDS011;75367;52.010;4.358;2024-02-26T02:53:53;5.65;;;4.65;;
85040;SDS011;75367;52.010;4.358;2024-02-26T02:56:18;6.13;;;4.57;;
85040;SDS011;75367;52.010;4.358;2024-02-26T02:58:44;5.28;;;4.18;;
85040;SDS011;75367;52.010;4.358;2024-02-26T03:01:09;7.60;;;4.65;;
85040;SDS011;75367;52.010;4.358;2024-02-26T03:03:35;6.22;;;5.03;;
85040;SDS011;75367;52.010;4.358;2024-02-26T03:06:01;6.25;;;5.00;;
85040;SDS011;75367;52.010;4.358;2024-02-26T03:08:27;7.15;;;4.70;;
85040;SDS011;75367;52.010;4.358;2024-02-26T03:10:53;5.38;;;4.20;;
85040;SDS011;75367;52.010;4.358;2024-02-26T03:13:18;5.55;;;5.05;;
85040;SDS011;75367;52.010;4.358;2024-02-26T03:15:44;5.78;;;4.22;;
85040;SDS011;75367;52.010;4.358;2024-02-26T03:18:09;4.90;;;4.25;;
85040;SDS011;75367;52.010;4.358;2024-02-26T03:20:34;5.57;;;4.75;;
85040;SDS011;75367;52.010;4.358;2024-02-26T03:23:00;5.22;;;3.70;;
85040;SDS011;75367;52.010;4.358;2024-02-26T03:25:25;7.38;;;4.63;;
85040;SDS011;75367;52.010;4.358;2024-02-26T03:27:51;6.13;;;4.03;;
85040;SDS011;75367;52.010;4.358;2024-02-26T03:30:16;5.45;;;4.30;;
85040;SDS011;75367;52.010;4.358;2024-02-26T03:32:41;6.90;;;4.57;;
85040;SDS011;75367;52.010;4.358;2024-02-26T03:35:07;4.82;;;3.30;;
85040;SDS011;75367;52.010;4.358;2024-02-26T03:37:33;5.20;;;3.45;;
85040;SDS011;75367;52.010;4.358;2024-02-26T03:39:58;3.65;;;2.50;;
85040;SDS011;75367;52.010;4.358;2024-02-26T03:42:24;5.13;;;4.30;;
85040;SDS011;75367;52.010;4.358;2024-02-26T03:44:49;4.85;;;4.05;;
85040;SDS011;75367;52.010;4.358;2024-02-26T03:47:15;4.97;;;4.28;;
85040;SDS011;75367;52.010;4.358;2024-02-26T03:49:41;6.22;;;4.53;;
85040;SDS011;75367;52.010;4.358;2024-02-26T03:52:06;5.30;;;4.78;;
85040;SDS011;75367;52.010;4.358;2024-02-26T03:54:32;5.97;;;3.75;;
85040;SDS011;75367;52.010;4.358;2024-02-26T03:56:57;5.88;;;3.97;;
85040;SDS011;75367;52.010;4.358;2024-02-26T03:59:22;5.45;;;4.80;;
85040;SDS011;75367;52.010;4.358;2024-02-26T04:01:49;7.13;;;5.57;;
85040;SDS011;75367;52.010;4.358;2024-02-26T04:04:15;6.30;;;4.57;;
85040;SDS011;75367;52.010;4.358;2024-02-26T04:06:44;6.38;;;4.82;;
85040;SDS011;75367;52.010;4.358;2024-02-26T04:09:15;6.07;;;4.60;;
85040;SDS011;75367;52.010;4.358;2024-02-26T04:11:40;6.97;;;5.38;;
85040;SDS011;75367;52.010;4.358;2024-02-26T04:14:08;6.25;;;4.43;;
85040;SDS011;75367;52.010;4.358;2024-02-26T04:16:34;6.68;;;4.05;;
85040;SDS011;75367;52.010;4.358;2024-02-26T04:19:00;7.65;;;5.03;;
85040;SDS011;75367;52.010;4.358;2024-02-26T04:21:26;7.35;;;5.30;;
85040;SDS011;75367;52.010;4.358;2024-02-26T04:23:51;7.85;;;6.20;;
85040;SDS011;75367;52.010;4.358;2024-02-26T04:26:20;6.97;;;4.97;;
85040;SDS011;75367;52.010;4.358;2024-02-26T04:28:46;7.15;;;6.28;;
85040;SDS011;75367;52.010;4.358;2024-02-26T04:31:11;8.23;;;5.47;;
85040;SDS011;75367;52.010;4.358;2024-02-26T04:33:36;7.55;;;5.43;;
85040;SDS011;75367;52.010;4.358;2024-02-26T04:36:02;7.47;;;5.93;;
85040;SDS011;75367;52.010;4.358;2024-02-26T04:38:28;7.45;;;6.60;;
85040;SDS011;75367;52.010;4.358;2024-02-26T04:40:53;6.35;;;5.35;;
85040;SDS011;75367;52.010;4.358;2024-02-26T04:43:19;7.07;;;5.13;;
85040;SDS011;75367;52.010;4.358;2024-02-26T04:45:44;7.22;;;5.50;;
85040;SDS011;75367;52.010;4.358;2024-02-26T04:48:09;5.78;;;4.60;;
85040;SDS011;75367;52.010;4.358;2024-02-26T04:50:35;9.40;;;5.07;;
85040;SDS011;75367;52.010;4.358;2024-02-26T04:53:00;8.50;;;5.85;;
85040;SDS011;75367;52.010;4.358;2024-02-26T04:55:26;7.18;;;5.30;;
85040;SDS011;75367;52.010;4.358;2024-02-26T04:57:51;8.88;;;6.05;;
85040;SDS011;75367;52.010;4.358;2024-02-26T05:00:17;8.45;;;5.78;;
85040;SDS011;75367;52.010;4.358;2024-02-26T05:02:42;6.63;;;4.80;;
85040;SDS011;75367;52.010;4.358;2024-02-26T05:05:08;6.85;;;6.13;;
85040;SDS011;75367;52.010;4.358;2024-02-26T05:07:40;7.63;;;6.05;;
85040;SDS011;75367;52.010;4.358;2024-02-26T05:10:07;9.68;;;6.78;;
85040;SDS011;75367;52.010;4.358;2024-02-26T05:12:33;7.28;;;5.10;;
85040;SDS011;75367;52.010;4.358;2024-02-26T05:15:00;8.27;;;7.10;;
85040;SDS011;75367;52.010;4.358;2024-02-26T05:17:25;9.55;;;6.57;;
85040;SDS011;75367;52.010;4.358;2024-02-26T05:19:51;6.88;;;5.20;;
85040;SDS011;75367;52.010;4.358;2024-02-26T05:22:16;9.23;;;5.30;;
85040;SDS011;75367;52.010;4.358;2024-02-26T05:24:42;9.07;;;6.88;;
85040;SDS011;75367;52.010;4.358;2024-02-26T05:27:07;9.27;;;5.20;;
85040;SDS011;75367;52.010;4.358;2024-02-26T05:29:33;9.05;;;6.25;;
85040;SDS011;75367;52.010;4.358;2024-02-26T05:31:58;8.63;;;5.95;;
85040;SDS011;75367;52.010;4.358;2024-02-26T05:34:24;9.65;;;6.22;;
85040;SDS011;75367;52.010;4.358;2024-02-26T05:36:49;8.82;;;6.32;;
85040;SDS011;75367;52.010;4.358;2024-02-26T05:39:14;9.50;;;7.82;;
85040;SDS011;75367;52.010;4.358;2024-02-26T05:41:41;8.82;;;5.85;;
85040;SDS011;75367;52.010;4.358;2024-02-26T05:44:08;9.88;;;7.60;;
85040;SDS011;75367;52.010;4.358;2024-02-26T05:46:35;9.70;;;6.72;;
85040;SDS011;75367;52.010;4.358;2024-02-26T05:49:00;9.52;;;7.32;;
85040;SDS011;75367;52.010;4.358;2024-02-26T05:51:26;9.27;;;5.70;;
85040;SDS011;75367;52.010;4.358;2024-02-26T05:53:51;9.10;;;6.70;;
85040;SDS011;75367;52.010;4.358;2024-02-26T05:56:20;9.68;;;7.22;;
85040;SDS011;75367;52.010;4.358;2024-02-26T05:58:46;8.43;;;6.20;;
85040;SDS011;75367;52.010;4.358;2024-02-26T06:01:12;9.57;;;6.97;;
85040;SDS011;75367;52.010;4.358;2024-02-26T06:03:37;11.67;;;4.90;;
85040;SDS011;75367;52.010;4.358;2024-02-26T06:06:03;9.45;;;6.35;;
85040;SDS011;75367;52.010;4.358;2024-02-26T06:08:29;9.57;;;6.72;;
85040;SDS011;75367;52.010;4.358;2024-02-26T06:10:54;9.27;;;7.15;;
85040;SDS011;75367;52.010;4.358;2024-02-26T06:13:19;9.60;;;6.57;;
85040;SDS011;75367;52.010;4.358;2024-02-26T06:15:45;12.18;;;8.88;;
85040;SDS011;75367;52.010;4.358;2024-02-26T06:18:11;11.75;;;8.30;;
85040;SDS011;75367;52.010;4.358;2024-02-26T06:20:36;14.35;;;8.98;;
85040;SDS011;75367;52.010;4.358;2024-02-26T06:23:01;11.75;;;8.00;;
85040;SDS011;75367;52.010;4.358;2024-02-26T06:25:27;13.73;;;10.00;;
85040;SDS011;75367;52.010;4.358;2024-02-26T06:27:52;12.32;;;10.00;;
85040;SDS011;75367;52.010;4.358;2024-02-26T06:30:18;12.38;;;8.13;;
85040;SDS011;75367;52.010;4.358;2024-02-26T06:32:43;12.55;;;7.15;;
85040;SDS011;75367;52.010;4.358;2024-02-26T06:35:08;13.20;;;7.93;;
85040;SDS011;75367;52.010;4.358;2024-02-26T06:37:36;14.50;;;10.30;;
85040;SDS011;75367;52.010;4.358;2024-02-26T06:40:01;14.95;;;10.23;;
85040;SDS011;75367;52.010;4.358;2024-02-26T06:42:29;13.15;;;7.90;;
85040;SDS011;75367;52.010;4.358;2024-02-26T06:44:55;14.23;;;11.77;;
85040;SDS011;75367;52.010;4.358;2024-02-26T06:47:20;13.63;;;9.48;;
85040;SDS011;75367;52.010;4.358;2024-02-26T06:49:47;13.83;;;10.90;;
85040;SDS011;75367;52.010;4.358;2024-02-26T06:52:13;15.18;;;12.30;;
85040;SDS011;75367;52.010;4.358;2024-02-26T06:54:38;15.35;;;9.82;;
85040;SDS011;75367;52.010;4.358;2024-02-26T06:57:03;13.43;;;8.25;;
85040;SDS011;75367;52.010;4.358;2024-02-26T06:59:29;15.32;;;10.73;;
85040;SDS011;75367;52.010;4.358;2024-02-26T07:01:54;16.30;;;10.93;;
85040;SDS011;75367;52.010;4.358;2024-02-26T07:04:20;15.60;;;12.25;;
85040;SDS011;75367;52.010;4.358;2024-02-26T07:06:45;14.20;;;10.50;;
85040;SDS011;75367;52.010;4.358;2024-02-26T07:09:11;15.13;;;13.30;;
85040;SDS011;75367;52.010;4.358;2024-02-26T07:11:37;16.13;;;14.20;;
85040;SDS011;75367;52.010;4.358;2024-02-26T07:14:02;15.50;;;11.13;;
85040;SDS011;75367;52.010;4.358;2024-02-26T07:16:28;15.48;;;11.18;;
85040;SDS011;75367;52.010;4.358;2024-02-26T07:18:53;14.68;;;11.45;;
85040;SDS011;75367;52.010;4.358;2024-02-26T07:21:19;16.52;;;12.82;;
85040;SDS011;75367;52.010;4.358;2024-02-26T07:23:44;17.05;;;13.07;;
85040;SDS011;75367;52.010;4.358;2024-02-26T07:26:10;13.50;;;10.57;;
85040;SDS011;75367;52.010;4.358;2024-02-26T07:28:37;13.27;;;11.13;;
85040;SDS011;75367;52.010;4.358;2024-02-26T07:31:02;13.25;;;10.80;;
85040;SDS011;75367;52.010;4.358;2024-02-26T07:33:28;13.32;;;10.35;;
85040;SDS011;75367;52.010;4.358;2024-02-26T07:35:56;14.52;;;9.63;;
85040;SDS011;75367;52.010;4.358;2024-02-26T07:38:22;12.45;;;9.73;;
85040;SDS011;75367;52.010;4.358;2024-02-26T07:40:49;14.73;;;10.80;;
85040;SDS011;75367;52.010;4.358;2024-02-26T07:43:14;12.70;;;11.13;;
85040;SDS011;75367;52.010;4.358;2024-02-26T07:45:39;13.43;;;10.05;;
85040;SDS011;75367;52.010;4.358;2024-02-26T07:48:05;12.25;;;9.27;;
85040;SDS011;75367;52.010;4.358;2024-02-26T07:50:30;12.25;;;9.25;;
85040;SDS011;75367;52.010;4.358;2024-02-26T07:52:56;12.17;;;9.73;;
85040;SDS011;75367;52.010;4.358;2024-02-26T07:55:21;10.15;;;8.15;;
85040;SDS011;75367;52.010;4.358;2024-02-26T07:57:48;9.23;;;6.80;;
85040;SDS011;75367;52.010;4.358;2024-02-26T08:00:13;10.98;;;9.20;;
85040;SDS011;75367;52.010;4.358;2024-02-26T08:02:41;9.40;;;8.10;;
85040;SDS011;75367;52.010;4.358;2024-02-26T08:05:07;8.95;;;7.60;;
85040;SDS011;75367;52.010;4.358;2024-02-26T08:07:33;10.70;;;7.13;;
85040;SDS011;75367;52.010;4.358;2024-02-26T08:09:59;9.15;;;7.57;;
85040;SDS011;75367;52.010;4.358;2024-02-26T08:12:24;8.63;;;6.80;;
85040;SDS011;75367;52.010;4.358;2024-02-26T08:14:50;7.95;;;7.15;;
85040;SDS011;75367;52.010;4.358;2024-02-26T08:17:15;8.48;;;7.57;;
85040;SDS011;75367;52.010;4.358;2024-02-26T08:19:41;9.25;;;6.78;;
85040;SDS011;75367;52.010;4.358;2024-02-26T08:22:06;6.82;;;5.80;;
85040;SDS011;75367;52.010;4.358;2024-02-26T08:24:31;7.53;;;5.23;;
85040;SDS011;75367;52.010;4.358;2024-02-26T08:26:57;7.35;;;5.65;;
85040;SDS011;75367;52.010;4.358;2024-02-26T08:29:22;8.25;;;6.50;;
85040;SDS011;75367;52.010;4.358;2024-02-26T08:31:47;6.87;;;6.17;;
85040;SDS011;75367;52.010;4.358;2024-02-26T08:34:13;4.43;;;3.92;;
85040;SDS011;75367;52.010;4.358;2024-02-26T08:36:39;6.43;;;5.22;;
85040;SDS011;75367;52.010;4.358;2024-02-26T08:39:04;4.60;;;3.28;;
85040;SDS011;75367;52.010;4.358;2024-02-26T08:41:30;6.78;;;5.38;;
85040;SDS011;75367;52.010;4.358;2024-02-26T08:43:55;5.75;;;4.97;;
85040;SDS011;75367;52.010;4.358;2024-02-26T08:46:20;5.63;;;4.60;;
85040;SDS011;75367;52.010;4.358;2024-02-26T08:48:46;6.25;;;4.68;;
85040;SDS011;75367;52.010;4.358;2024-02-26T08:51:11;5.38;;;4.22;;
85040;SDS011;75367;52.010;4.358;2024-02-26T08:53:38;6.03;;;5.35;;
85040;SDS011;75367;52.010;4.358;2024-02-26T08:56:03;4.40;;;3.03;;
85040;SDS011;75367;52.010;4.358;2024-02-26T08:58:29;5.10;;;4.45;;
85040;SDS011;75367;52.010;4.358;2024-02-26T09:00:55;5.15;;;4.40;;
85040;SDS011;75367;52.010;4.358;2024-02-26T09:03:21;6.93;;;4.30;;
85040;SDS011;75367;52.010;4.358;2024-02-26T09:05:46;4.35;;;3.92;;
85040;SDS011;75367;52.010;4.358;2024-02-26T09:08:12;5.38;;;4.47;;
85040;SDS011;75367;52.010;4.358;2024-02-26T09:10:38;4.88;;;3.85;;
85040;SDS011;75367;52.010;4.358;2024-02-26T09:13:03;4.75;;;3.67;;
85040;SDS011;75367;52.010;4.358;2024-02-26T09:15:29;5.35;;;4.43;;
85040;SDS011;75367;52.010;4.358;2024-02-26T09:17:54;4.70;;;3.42;;
85040;SDS011;75367;52.010;4.358;2024-02-26T09:20:20;6.47;;;3.95;;
85040;SDS011;75367;52.010;4.358;2024-02-26T09:22:46;6.30;;;3.72;;
85040;SDS011;75367;52.010;4.358;2024-02-26T09:25:12;4.53;;;3.80;;
85040;SDS011;75367;52.010;4.358;2024-02-26T09:27:38;5.50;;;4.25;;
85040;SDS011;75367;52.010;4.358;2024-02-26T09:30:04;4.82;;;3.40;;
85040;SDS011;75367;52.010;4.358;2024-02-26T09:32:29;4.95;;;3.70;;
85040;SDS011;75367;52.010;4.358;2024-02-26T09:34:55;4.80;;;4.00;;
85040;SDS011;75367;52.010;4.358;2024-02-26T09:37:20;4.05;;;3.20;;
85040;SDS011;75367;52.010;4.358;2024-02-26T09:39:47;5.00;;;3.33;;
85040;SDS011;75367;52.010;4.358;2024-02-26T09:42:12;4.10;;;2.72;;
85040;SDS011;75367;52.010;4.358;2024-02-26T09:44:39;5.45;;;3.42;;
85040;SDS011;75367;52.010;4.358;2024-02-26T09:47:07;5.57;;;4.00;;
85040;SDS011;75367;52.010;4.358;2024-02-26T09:49:33;4.60;;;4.03;;
85040;SDS011;75367;52.010;4.358;2024-02-26T09:52:00;5.43;;;3.60;;
85040;SDS011;75367;52.010;4.358;2024-02-26T09:54:27;5.55;;;4.03;;
85040;SDS011;75367;52.010;4.358;2024-02-26T09:56:53;4.78;;;3.83;;
85040;SDS011;75367;52.010;4.358;2024-02-26T09:59:25;5.63;;;4.20;;
85040;SDS011;75367;52.010;4.358;2024-02-26T10:01:51;4.43;;;3.75;;
85040;SDS011;75367;52.010;4.358;2024-02-26T10:04:17;4.13;;;3.63;;
85040;SDS011;75367;52.010;4.358;2024-02-26T10:06:43;6.35;;;3.88;;
85040;SDS011;75367;52.010;4.358;2024-02-26T10:09:10;4.85;;;3.90;;
85040;SDS011;75367;52.010;4.358;2024-02-26T10:11:35;4.95;;;3.70;;
85040;SDS011;75367;52.010;4.358;2024-02-26T10:14:02;5.63;;;3.53;;
85040;SDS011;75367;52.010;4.358;2024-02-26T10:16:29;5.05;;;3.13;;
85040;SDS011;75367;52.010;4.358;2024-02-26T10:18:55;6.00;;;4.25;;
85040;SDS011;75367;52.010;4.358;2024-02-26T10:21:20;3.58;;;3.13;;
85040;SDS011;75367;52.010;4.358;2024-02-26T10:23:46;5.25;;;3.67;;
85040;SDS011;75367;52.010;4.358;2024-02-26T10:26:12;4.97;;;3.40;;
85040;SDS011;75367;52.010;4.358;2024-02-26T10:28:39;6.68;;;3.95;;
85040;SDS011;75367;52.010;4.358;2024-02-26T10:31:07;6.13;;;3.05;;
85040;SDS011;75367;52.010;4.358;2024-02-26T10:33:33;4.60;;;3.50;;
85040;SDS011;75367;52.010;4.358;2024-02-26T10:36:01;4.43;;;3.47;;
85040;SDS011;75367;52.010;4.358;2024-02-26T10:38:26;6.55;;;3.78;;
85040;SDS011;75367;52.010;4.358;2024-02-26T10:40:52;5.47;;;3.30;;
85040;SDS011;75367;52.010;4.358;2024-02-26T10:43:19;6.03;;;3.75;;
85040;SDS011;75367;52.010;4.358;2024-02-26T10:45:44;5.38;;;3.28;;
85040;SDS011;75367;52.010;4.358;2024-02-26T10:48:11;4.10;;;3.70;;
85040;SDS011;75367;52.010;4.358;2024-02-26T10:50:38;3.90;;;2.75;;
85040;SDS011;75367;52.010;4.358;2024-02-26T10:53:03;4.47;;;3.38;;
85040;SDS011;75367;52.010;4.358;2024-02-26T10:55:30;5.43;;;3.40;;
85040;SDS011;75367;52.010;4.358;2024-02-26T10:57:58;5.13;;;3.88;;
85040;SDS011;75367;52.010;4.358;2024-02-26T11:00:23;4.63;;;3.10;;
85040;SDS011;75367;52.010;4.358;2024-02-26T11:02:49;5.43;;;4.63;;
85040;SDS011;75367;52.010;4.358;2024-02-26T11:05:15;4.60;;;2.90;;
85040;SDS011;75367;52.010;4.358;2024-02-26T11:07:42;5.35;;;3.15;;
85040;SDS011;75367;52.010;4.358;2024-02-26T11:10:08;5.13;;;4.13;;
85040;SDS011;75367;52.010;4.358;2024-02-26T11:12:34;5.38;;;4.28;;
85040;SDS011;75367;52.010;4.358;2024-02-26T11:15:03;2.75;;;1.98;;
85040;SDS011;75367;52.010;4.358;2024-02-26T11:17:29;4.13;;;3.33;;
85040;SDS011;75367;52.010;4.358;2024-02-26T11:19:58;5.15;;;3.35;;
85040;SDS011;75367;52.010;4.358;2024-02-26T11:22:24;5.93;;;4.03;;
85040;SDS011;75367;52.010;4.358;2024-02-26T11:24:51;5.68;;;3.67;;
85040;SDS011;75367;52.010;4.358;2024-02-26T11:27:18;5.82;;;4.00;;
85040;SDS011;75367;52.010;4.358;2024-02-26T11:29:47;4.97;;;3.42;;
85040;SDS011;75367;52.010;4.358;2024-02-26T11:34:40;4.80;;;3.40;;
85040;SDS011;75367;52.010;4.358;2024-02-26T11:37:13;5.97;;;3.90;;
85040;SDS011;75367;52.010;4.358;2024-02-26T11:39:40;4.93;;;3.05;;
85040;SDS011;75367;52.010;4.358;2024-02-26T11:42:06;9.77;;;4.57;;
85040;SDS011;75367;52.010;4.358;2024-02-26T11:44:33;5.63;;;4.03;;
85040;SDS011;75367;52.010;4.358;2024-02-26T11:46:58;6.97;;;4.82;;
85040;SDS011;75367;52.010;4.358;2024-02-26T11:51:54;4.88;;;4.13;;
85040;SDS011;75367;52.010;4.358;2024-02-26T11:59:48;5.40;;;3.22;;
85040;SDS011;75367;52.010;4.358;2024-02-26T12:05:13;4.78;;;3.28;;
85040;SDS011;75367;52.010;4.358;2024-02-26T12:07:48;6.20;;;3.15;;
85040;SDS011;75367;52.010;4.358;2024-02-26T12:10:15;3.90;;;2.03;;
85040;SDS011;75367;52.010;4.358;2024-02-26T12:12:50;3.13;;;2.42;;
85040;SDS011;75367;52.010;4.358;2024-02-26T12:15:18;3.38;;;2.22;;
85040;SDS011;75367;52.010;4.358;2024-02-26T12:17:48;5.00;;;2.50;;
85040;SDS011;75367;52.010;4.358;2024-02-26T12:20:13;4.18;;;2.70;;
85040;SDS011;75367;52.010;4.358;2024-02-26T12:22:39;4.20;;;1.95;;
85040;SDS011;75367;52.010;4.358;2024-02-26T12:25:05;3.70;;;1.83;;
85040;SDS011;75367;52.010;4.358;2024-02-26T12:27:31;6.45;;;3.33;;
85040;SDS011;75367;52.010;4.358;2024-02-26T12:29:58;3.53;;;2.50;;
85040;SDS011;75367;52.010;4.358;2024-02-26T12:32:23;3.67;;;1.88;;
85040;SDS011;75367;52.010;4.358;2024-02-26T12:34:49;2.70;;;1.52;;
85040;SDS011;75367;52.010;4.358;2024-02-26T12:37:15;3.45;;;2.05;;
85040;SDS011;75367;52.010;4.358;2024-02-26T12:39:40;2.70;;;2.10;;
85040;SDS011;75367;52.010;4.358;2024-02-26T12:42:06;3.78;;;1.85;;
85040;SDS011;75367;52.010;4.358;2024-02-26T12:44:32;2.92;;;2.05;;
85040;SDS011;75367;52.010;4.358;2024-02-26T12:47:01;4.10;;;2.65;;
85040;SDS011;75367;52.010;4.358;2024-02-26T12:49:30;3.90;;;2.13;;
85040;SDS011;75367;52.010;4.358;2024-02-26T12:51:56;3.65;;;2.90;;
85040;SDS011;75367;52.010;4.358;2024-02-26T12:54:27;3.67;;;2.08;;
85040;SDS011;75367;52.010;4.358;2024-02-26T12:56:56;4.10;;;2.08;;
85040;SDS011;75367;52.010;4.358;2024-02-26T12:59:22;4.20;;;2.22;;
85040;SDS011;75367;52.010;4.358;2024-02-26T13:01:48;3.20;;;2.03;;
85040;SDS011;75367;52.010;4.358;2024-02-26T13:04:13;3.80;;;2.20;;
85040;SDS011;75367;52.010;4.358;2024-02-26T13:06:38;2.42;;;1.83;;
85040;SDS011;75367;52.010;4.358;2024-02-26T13:09:04;3.95;;;2.30;;
85040;SDS011;75367;52.010;4.358;2024-02-26T13:11:29;3.58;;;2.17;;
85040;SDS011;75367;52.010;4.358;2024-02-26T13:13:56;3.28;;;2.20;;
85040;SDS011;75367;52.010;4.358;2024-02-26T13:16:23;3.17;;;2.38;;
85040;SDS011;75367;52.010;4.358;2024-02-26T13:18:49;3.03;;;2.20;;
85040;SDS011;75367;52.010;4.358;2024-02-26T13:21:15;4.82;;;1.63;;
85040;SDS011;75367;52.010;4.358;2024-02-26T13:23:41;2.92;;;1.85;;
85040;SDS011;75367;52.010;4.358;2024-02-26T13:26:07;4.07;;;1.70;;
85040;SDS011;75367;52.010;4.358;2024-02-26T13:28:33;3.05;;;1.55;;
85040;SDS011;75367;52.010;4.358;2024-02-26T13:31:00;5.25;;;2.17;;
85040;SDS011;75367;52.010;4.358;2024-02-26T13:33:29;3.78;;;1.52;;
85040;SDS011;75367;52.010;4.358;2024-02-26T13:35:55;3.45;;;1.92;;
85040;SDS011;75367;52.010;4.358;2024-02-26T13:38:21;4.55;;;1.88;;
85040;SDS011;75367;52.010;4.358;2024-02-26T13:40:47;3.20;;;1.48;;
85040;SDS011;75367;52.010;4.358;2024-02-26T13:43:13;3.33;;;2.10;;
85040;SDS011;75367;52.010;4.358;2024-02-26T13:45:38;4.95;;;2.22;;
85040;SDS011;75367;52.010;4.358;2024-02-26T13:48:05;2.63;;;1.50;;
85040;SDS011;75367;52.010;4.358;2024-02-26T13:50:38;3.45;;;2.45;;
85040;SDS011;75367;52.010;4.358;2024-02-26T13:53:05;2.92;;;1.70;;
85040;SDS011;75367;52.010;4.358;2024-02-26T13:55:30;3.53;;;1.95;;
85040;SDS011;75367;52.010;4.358;2024-02-26T13:57:57;3.22;;;2.00;;
85040;SDS011;75367;52.010;4.358;2024-02-26T14:00:23;3.78;;;2.05;;
85040;SDS011;75367;52.010;4.358;2024-02-26T14:02:49;2.35;;;1.80;;
85040;SDS011;75367;52.010;4.358;2024-02-26T14:05:14;4.00;;;2.30;;
85040;SDS011;75367;52.010;4.358;2024-02-26T14:07:40;3.90;;;2.20;;
85040;SDS011;75367;52.010;4.358;2024-02-26T14:10:06;3.80;;;1.83;;
85040;SDS011;75367;52.010;4.358;2024-02-26T14:12:32;4.10;;;2.08;;
85040;SDS011;75367;52.010;4.358;2024-02-26T14:14:57;2.17;;;1.33;;
85040;SDS011;75367;52.010;4.358;2024-02-26T14:17:27;4.22;;;2.17;;
85040;SDS011;75367;52.010;4.358;2024-02-26T14:19:52;3.53;;;1.58;;
85040;SDS011;75367;52.010;4.358;2024-02-26T14:22:17;2.95;;;1.50;;
85040;SDS011;75367;52.010;4.358;2024-02-26T14:24:43;2.67;;;1.60;;
85040;SDS011;75367;52.010;4.358;2024-02-26T14:27:10;2.72;;;1.20;;
85040;SDS011;75367;52.010;4.358;2024-02-26T14:32:07;2.10;;;1.55;;
85040;SDS011;75367;52.010;4.358;2024-02-26T14:34:32;3.00;;;1.75;;
85040;SDS011;75367;52.010;4.358;2024-02-26T14:36:58;3.40;;;1.65;;
85040;SDS011;75367;52.010;4.358;2024-02-26T14:39:23;3.88;;;2.13;;
85040;SDS011;75367;52.010;4.358;2024-02-26T14:41:48;3.00;;;2.03;;
85040;SDS011;75367;52.010;4.358;2024-02-26T14:44:14;3.42;;;1.95;;
85040;SDS011;75367;52.010;4.358;2024-02-26T14:46:39;2.45;;;1.75;;
85040;SDS011;75367;52.010;4.358;2024-02-26T14:49:05;5.95;;;2.75;;
85040;SDS011;75367;52.010;4.358;2024-02-26T14:51:30;3.28;;;2.20;;
85040;SDS011;75367;52.010;4.358;2024-02-26T14:53:56;2.60;;;1.92;;